Time;durP1;ratioP1;P1;durP2;ratioP2;P2;SDS_P1;SDS_P2;PMS_P1;PMS_P2;Temp;Humidity;BMP_temperature;BMP_pressure;BME280_temperature;BME280_humidity;BME280_pressure;Samples;Min_cycle;Max_cycle;Signal;HPM_P1;HPM_P2
2021/01/12 00:00:17;;;;;;;29.13;15.60;;;1.30;99.80;;;;;;4962781;28;20325;-90
2021/01/12 00:02:44;;;;;;;28.80;15.45;;;1.30;99.80;;;;;;4946504;28;20318;-90
2021/01/12 00:05:12;;;;;;;28.63;14.07;;;1.30;99.80;;;;;;4951265;28;20224;-90
2021/01/12 00:07:39;;;;;;;30.83;16.25;;;1.30;99.80;;;;;;4959749;28;20670;-91
2021/01/12 00:10:08;;;;;;;31.38;14.75;;;1.40;99.80;;;;;;4945384;28;20406;-90
2021/01/12 00:12:36;;;;;;;28.40;15.05;;;1.40;99.80;;;;;;4948146;28;20230;-90
2021/01/12 00:15:05;;;;;;;28.17;14.70;;;1.40;99.80;;;;;;4950424;28;20246;-90
2021/01/12 00:17:35;;;;;;;27.83;14.95;;;1.40;99.80;;;;;;4954576;28;20259;-90
2021/01/12 00:20:06;;;;;;;30.27;13.73;;;1.40;99.80;;;;;;4962245;28;20232;-90
2021/01/12 00:22:40;;;;;;;23.88;13.88;;;1.30;99.80;;;;;;4962999;28;20310;-90
2021/01/12 00:25:09;;;;;;;25.77;14.82;;;1.30;99.80;;;;;;4969850;28;20229;-91
2021/01/12 00:27:55;;;;;;;31.23;14.32;;;1.30;99.80;;;;;;4940423;28;20655;-90
2021/01/12 00:30:23;;;;;;;29.58;14.30;;;1.30;99.80;;;;;;4935899;28;20231;-91
2021/01/12 00:32:53;;;;;;;26.27;14.35;;;1.30;99.80;;;;;;4943632;28;20251;-91
2021/01/12 00:35:20;;;;;;;29.65;15.02;;;1.30;99.80;;;;;;4953088;28;20224;-90
2021/01/12 00:37:50;;;;;;;33.42;15.63;;;1.30;99.80;;;;;;4957161;28;20228;-91
2021/01/12 00:40:19;;;;;;;28.67;15.30;;;1.30;99.80;;;;;;4935052;28;20317;-90
2021/01/12 00:42:50;;;;;;;25.08;13.02;;;1.30;99.80;;;;;;4952693;28;20319;-90
2021/01/12 00:45:17;;;;;;;30.73;14.13;;;1.30;99.80;;;;;;4945007;28;20295;-90
2021/01/12 00:47:44;;;;;;;31.73;15.40;;;1.30;99.80;;;;;;4936690;28;20287;-90
2021/01/12 00:50:13;;;;;;;31.20;14.27;;;1.30;99.80;;;;;;4954040;28;20242;-90
2021/01/12 00:52:40;;;;;;;29.00;14.82;;;1.30;99.80;;;;;;4943338;28;20240;-90
2021/01/12 00:55:09;;;;;;;29.98;15.07;;;1.30;99.80;;;;;;4952500;28;20604;-90
2021/01/12 00:57:39;;;;;;;34.72;15.52;;;1.30;99.80;;;;;;4949698;28;20318;-90
2021/01/12 01:00:07;;;;;;;25.63;13.45;;;1.30;99.80;;;;;;4945453;28;20235;-90
2021/01/12 01:02:35;;;;;;;32.67;15.52;;;1.30;99.80;;;;;;4949943;28;20787;-90
2021/01/12 01:05:05;;;;;;;28.40;14.75;;;1.30;99.80;;;;;;4963398;28;20234;-90
2021/01/12 01:07:34;;;;;;;33.10;15.27;;;1.30;99.80;;;;;;4949720;28;20232;-90
2021/01/12 01:10:01;;;;;;;29.35;14.43;;;1.30;99.80;;;;;;4958160;28;20428;-90
2021/01/12 01:12:28;;;;;;;30.75;15.50;;;1.30;99.80;;;;;;4938901;28;20270;-91
2021/01/12 01:14:55;;;;;;;26.88;15.20;;;1.30;99.80;;;;;;4932112;28;20223;-91
2021/01/12 01:17:23;;;;;;;35.05;15.05;;;1.30;99.80;;;;;;4937457;28;20248;-91
2021/01/12 01:19:52;;;;;;;33.83;15.38;;;1.20;99.80;;;;;;4965954;28;20660;-90
2021/01/12 01:22:25;;;;;;;33.95;15.57;;;1.20;99.80;;;;;;4937322;28;20310;-91
2021/01/12 01:24:54;;;;;;;34.95;16.10;;;1.10;99.80;;;;;;4957675;28;20633;-91
2021/01/12 01:27:21;;;;;;;30.67;15.85;;;1.10;99.80;;;;;;4942726;28;20227;-91
2021/01/12 01:29:48;;;;;;;29.38;15.40;;;1.00;99.80;;;;;;4933923;28;20242;-90
2021/01/12 01:32:15;;;;;;;31.25;17.08;;;0.90;99.80;;;;;;4955814;28;20314;-91
2021/01/12 01:34:42;;;;;;;29.67;15.75;;;0.80;99.80;;;;;;4979996;28;20653;-90
2021/01/12 01:37:09;;;;;;;39.63;18.45;;;0.80;99.80;;;;;;4969030;28;20283;-91
2021/01/12 01:39:36;;;;;;;35.42;16.80;;;0.70;99.80;;;;;;4961422;28;20255;-90
2021/01/12 01:42:05;;;;;;;30.65;16.05;;;0.70;99.80;;;;;;4955308;28;20723;-91
2021/01/12 01:44:32;;;;;;;36.65;18.55;;;0.70;99.80;;;;;;4936816;28;20227;-91
2021/01/12 01:46:59;;;;;;;34.08;15.70;;;0.70;99.80;;;;;;4938460;28;20324;-91
2021/01/12 01:49:27;;;;;;;35.85;15.80;;;0.70;99.80;;;;;;4968240;28;20582;-90
2021/01/12 01:51:58;;;;;;;33.75;15.70;;;0.70;99.80;;;;;;4964208;28;20235;-90
2021/01/12 01:54:27;;;;;;;33.42;16.20;;;0.80;99.80;;;;;;4946889;28;20231;-91
2021/01/12 01:56:54;;;;;;;34.88;15.75;;;0.70;99.80;;;;;;4954763;28;20697;-91
2021/01/12 01:59:22;;;;;;;32.90;16.50;;;0.80;99.80;;;;;;4957466;28;20235;-91
2021/01/12 02:01:49;;;;;;;32.25;15.20;;;0.80;99.80;;;;;;4948172;28;20775;-91
2021/01/12 02:04:25;;;;;;;29.92;16.42;;;0.80;99.80;;;;;;4980098;28;20234;-91
2021/01/12 02:06:52;;;;;;;36.33;16.77;;;0.90;99.80;;;;;;4975456;28;20223;-92
2021/01/12 02:09:25;;;;;;;27.38;16.58;;;0.90;99.80;;;;;;4973322;28;20325;-90
2021/01/12 02:11:56;;;;;;;26.25;14.70;;;1.00;99.80;;;;;;4970099;28;20305;-90
2021/01/12 02:14:27;;;;;;;30.25;15.15;;;1.00;99.80;;;;;;4954630;28;20274;-90
2021/01/12 02:17:07;;;;;;;33.67;16.85;;;1.10;99.80;;;;;;4947989;28;20227;-90
2021/01/12 02:19:37;;;;;;;32.20;15.85;;;1.10;99.80;;;;;;4983253;28;20261;-91
2021/01/12 02:22:06;;;;;;;32.50;15.68;;;1.10;99.80;;;;;;4961890;28;20231;-90
2021/01/12 02:24:41;;;;;;;29.65;14.77;;;1.10;99.80;;;;;;4955929;28;20529;-91
2021/01/12 02:27:08;;;;;;;33.33;15.48;;;1.10;99.80;;;;;;4943717;28;20241;-91
2021/01/12 02:29:38;;;;;;;31.25;15.52;;;1.10;99.80;;;;;;4945645;28;20266;-91
2021/01/12 02:32:06;;;;;;;28.10;14.23;;;1.20;99.80;;;;;;4961866;28;20223;-91
2021/01/12 02:34:34;;;;;;;32.33;15.77;;;1.20;99.80;;;;;;4962444;28;20363;-91
2021/01/12 02:37:03;;;;;;;29.60;14.90;;;1.20;99.80;;;;;;4945478;28;20228;-91
2021/01/12 02:39:31;;;;;;;25.45;14.07;;;1.20;99.80;;;;;;4955133;28;20241;-90
2021/01/12 02:41:59;;;;;;;28.90;14.13;;;1.20;99.80;;;;;;4960675;28;20577;-91
2021/01/12 02:44:29;;;;;;;33.75;16.23;;;1.20;99.80;;;;;;4954674;28;20307;-90
2021/01/12 02:46:57;;;;;;;34.22;15.77;;;1.30;99.80;;;;;;4945893;28;20258;-90
2021/01/12 02:49:24;;;;;;;35.58;16.63;;;1.30;99.80;;;;;;4950823;28;20267;-90
2021/01/12 02:51:51;;;;;;;30.98;15.75;;;1.30;99.80;;;;;;4953166;28;20259;-90
2021/01/12 02:54:20;;;;;;;35.85;15.15;;;1.30;99.80;;;;;;4943926;28;20249;-91
2021/01/12 02:56:50;;;;;;;33.58;15.38;;;1.30;99.80;;;;;;4948085;28;20226;-92
2021/01/12 02:59:18;;;;;;;29.52;13.95;;;1.30;99.80;;;;;;4949691;28;20243;-90
2021/01/12 03:01:45;;;;;;;26.60;14.70;;;1.30;99.80;;;;;;4967986;28;20709;-91
2021/01/12 03:04:12;;;;;;;28.25;15.05;;;1.30;99.80;;;;;;4958458;28;20271;-90
2021/01/12 03:06:42;;;;;;;33.60;15.25;;;1.30;99.80;;;;;;4957067;28;20729;-90
2021/01/12 03:09:11;;;;;;;34.80;15.20;;;1.30;99.80;;;;;;4956341;28;20699;-90
2021/01/12 03:11:38;;;;;;;35.15;17.15;;;1.30;99.80;;;;;;4956117;28;20212;-90
2021/01/12 03:14:05;;;;;;;32.55;14.65;;;1.40;99.80;;;;;;4956162;28;20208;-91
2021/01/12 03:16:36;;;;;;;26.88;13.32;;;1.40;99.80;;;;;;4956098;28;20303;-91
2021/01/12 03:19:05;;;;;;;25.58;13.80;;;1.40;99.80;;;;;;4959430;28;20235;-90
2021/01/12 03:21:32;;;;;;;28.77;13.50;;;1.40;99.80;;;;;;4970428;28;20224;-90
2021/01/12 03:23:59;;;;;;;32.85;16.95;;;1.40;99.80;;;;;;4961659;28;20306;-91
2021/01/12 03:26:27;;;;;;;26.92;14.27;;;1.40;99.80;;;;;;4944350;28;20719;-90
2021/01/12 03:28:54;;;;;;;30.20;14.50;;;1.40;99.80;;;;;;4950280;28;20965;-91
2021/01/12 03:31:21;;;;;;;28.35;13.60;;;1.40;99.80;;;;;;4961741;28;20265;-91
2021/01/12 03:33:49;;;;;;;26.60;14.23;;;1.50;99.80;;;;;;4963066;28;20301;-91
2021/01/12 03:36:16;;;;;;;27.80;14.10;;;1.40;99.80;;;;;;4967028;28;20323;-91
2021/01/12 03:38:43;;;;;;;28.92;14.13;;;1.40;99.80;;;;;;4952822;28;20313;-91
2021/01/12 03:41:13;;;;;;;29.58;14.00;;;1.40;99.80;;;;;;4965487;28;20255;-90
2021/01/12 03:43:40;;;;;;;25.92;13.75;;;1.30;99.80;;;;;;4949528;28;20242;-91
2021/01/12 03:46:11;;;;;;;29.55;14.48;;;1.30;99.80;;;;;;4960065;28;20246;-91
2021/01/12 03:48:38;;;;;;;27.42;14.70;;;1.30;99.80;;;;;;4978596;28;21054;-90
2021/01/12 03:51:09;;;;;;;24.77;13.57;;;1.30;99.80;;;;;;4970531;28;20760;-91
2021/01/12 03:53:36;;;;;;;34.15;15.45;;;1.30;99.80;;;;;;4951413;28;20303;-90
2021/01/12 03:56:03;;;;;;;31.75;15.65;;;1.30;99.80;;;;;;4950022;28;20715;-90
2021/01/12 03:58:31;;;;;;;28.85;14.35;;;1.30;99.80;;;;;;4926465;28;20239;-90
2021/01/12 04:00:58;;;;;;;34.17;16.00;;;1.20;99.80;;;;;;4939327;28;20314;-90
2021/01/12 04:03:29;;;;;;;36.75;15.93;;;1.20;99.80;;;;;;4956958;28;20761;-90
2021/01/12 04:06:00;;;;;;;27.80;14.60;;;1.20;99.80;;;;;;4949091;28;20224;-90
2021/01/12 04:08:28;;;;;;;32.20;15.93;;;1.20;99.80;;;;;;4923808;28;20240;-91
2021/01/12 04:10:56;;;;;;;35.65;16.65;;;1.20;99.80;;;;;;4926768;28;20231;-90
2021/01/12 04:13:24;;;;;;;28.75;14.57;;;1.20;99.80;;;;;;4955638;28;20238;-89
2021/01/12 04:15:51;;;;;;;34.42;14.20;;;1.20;99.80;;;;;;4956815;28;20227;-89
2021/01/12 04:18:18;;;;;;;35.33;15.63;;;1.20;99.80;;;;;;4972499;28;20293;-90
2021/01/12 04:20:45;;;;;;;30.20;15.30;;;1.20;99.80;;;;;;4972095;28;20233;-90
2021/01/12 04:23:12;;;;;;;28.95;14.50;;;1.20;99.80;;;;;;4970187;28;20273;-89
2021/01/12 04:25:40;;;;;;;33.28;16.58;;;1.20;99.80;;;;;;4974927;28;20237;-89
2021/01/12 04:28:07;;;;;;;30.25;15.43;;;1.20;99.80;;;;;;4954838;28;20318;-90
2021/01/12 04:30:35;;;;;;;31.73;16.58;;;1.20;99.80;;;;;;4938788;28;20231;-90
2021/01/12 04:33:02;;;;;;;41.75;17.63;;;1.20;99.80;;;;;;4967304;28;20275;-90
2021/01/12 04:35:30;;;;;;;32.35;15.57;;;1.10;99.80;;;;;;4963099;28;20235;-90
2021/01/12 04:37:57;;;;;;;30.05;14.82;;;1.20;99.80;;;;;;4964682;28;20648;-90
2021/01/12 04:40:27;;;;;;;25.80;15.40;;;1.20;99.80;;;;;;4945956;28;20238;-88
2021/01/12 04:42:57;;;;;;;27.25;14.95;;;1.20;99.80;;;;;;4951714;28;20253;-88
2021/01/12 04:45:26;;;;;;;30.65;14.90;;;1.10;99.80;;;;;;4956046;28;20314;-89
2021/01/12 04:47:57;;;;;;;28.88;14.40;;;1.10;99.80;;;;;;4958741;28;20226;-88
2021/01/12 04:50:24;;;;;;;26.13;14.02;;;1.10;99.80;;;;;;4947444;28;20235;-89
2021/01/12 04:52:54;;;;;;;29.30;15.48;;;1.10;99.80;;;;;;4952376;28;20266;-88
2021/01/12 04:55:22;;;;;;;25.75;14.02;;;1.10;99.80;;;;;;4961375;28;20325;-89
2021/01/12 04:57:50;;;;;;;29.63;15.63;;;1.10;99.80;;;;;;4947936;28;20692;-89
2021/01/12 05:00:23;;;;;;;27.67;13.98;;;1.10;99.80;;;;;;4944189;28;20239;-89
2021/01/12 05:03:03;;;;;;;30.48;14.93;;;1.10;99.80;;;;;;4968212;28;20226;-90
2021/01/12 05:05:43;;;;;;;29.52;15.30;;;1.10;99.80;;;;;;4960661;28;20236;-89
2021/01/12 05:08:17;;;;;;;26.65;14.43;;;1.10;99.80;;;;;;4959835;28;20227;-89
2021/01/12 05:10:50;;;;;;;27.77;14.52;;;1.10;99.80;;;;;;4956698;28;20606;-88
2021/01/12 05:13:21;;;;;;;22.73;13.85;;;1.10;99.80;;;;;;4959724;28;20318;-89
2021/01/12 05:15:52;;;;;;;27.58;14.77;;;1.10;99.80;;;;;;4951592;28;20258;-89
2021/01/12 05:18:24;;;;;;;24.80;13.45;;;1.10;99.80;;;;;;4964597;28;20230;-88
2021/01/12 05:20:53;;;;;;;27.20;14.32;;;1.10;99.80;;;;;;4960913;28;20232;-88
2021/01/12 05:23:23;;;;;;;31.45;13.95;;;1.10;99.80;;;;;;4940755;28;20316;-88
2021/01/12 05:25:52;;;;;;;27.15;12.88;;;1.10;99.80;;;;;;4958013;28;20302;-89
2021/01/12 05:28:20;;;;;;;28.52;15.00;;;1.10;99.80;;;;;;4948515;28;20238;-88
2021/01/12 05:30:54;;;;;;;30.83;14.70;;;1.10;99.80;;;;;;4944987;28;20223;-88
2021/01/12 05:33:22;;;;;;;27.67;14.93;;;1.10;99.80;;;;;;4976752;28;20607;-87
2021/01/12 05:35:49;;;;;;;27.13;13.73;;;1.00;99.80;;;;;;4963874;28;20281;-87
2021/01/12 05:38:27;;;;;;;26.42;14.25;;;1.00;99.80;;;;;;4972931;28;20710;-87
2021/01/12 05:40:55;;;;;;;25.85;13.32;;;1.00;99.80;;;;;;4961345;28;20231;-87
2021/01/12 05:43:33;;;;;;;30.55;14.73;;;1.00;99.80;;;;;;4952899;28;20223;-88
2021/01/12 05:46:07;;;;;;;22.83;13.35;;;1.00;99.80;;;;;;4947990;28;20253;-87
2021/01/12 05:48:36;;;;;;;25.60;13.50;;;1.00;99.80;;;;;;4967280;28;20236;-87
2021/01/12 05:51:05;;;;;;;24.52;12.45;;;1.00;99.80;;;;;;4969077;28;20311;-88
2021/01/12 05:54:02;;;;;;;23.90;13.40;;;1.00;99.80;;;;;;4961185;28;20286;-87
2021/01/12 05:56:31;;;;;;;25.95;12.13;;;1.00;99.80;;;;;;4955319;28;20669;-87
2021/01/12 05:59:00;;;;;;;27.20;13.15;;;1.10;99.80;;;;;;4955619;28;20226;-86
2021/01/12 06:01:50;;;;;;;26.33;14.20;;;1.00;99.80;;;;;;4947658;28;20972;-87
2021/01/12 06:04:17;;;;;;;24.25;13.45;;;1.00;99.80;;;;;;4976043;28;20239;-88
2021/01/12 06:06:49;;;;;;;23.45;13.60;;;1.10;99.80;;;;;;4972125;28;20227;-87
2021/01/12 06:09:17;;;;;;;28.02;12.45;;;1.10;99.80;;;;;;4975389;28;20411;-87
2021/01/12 06:11:47;;;;;;;22.88;12.98;;;1.00;99.80;;;;;;4968002;28;20231;-88
2021/01/12 06:14:17;;;;;;;25.83;12.95;;;1.00;99.80;;;;;;4963291;28;20235;-88
2021/01/12 06:16:48;;;;;;;19.25;11.23;;;1.00;99.80;;;;;;4960919;28;20752;-87
2021/01/12 06:19:17;;;;;;;19.67;12.45;;;1.00;99.80;;;;;;4961619;28;20246;-87
2021/01/12 06:22:08;;;;;;;21.98;13.45;;;1.10;99.80;;;;;;4966926;28;20251;-86
2021/01/12 06:24:42;;;;;;;23.17;13.40;;;1.10;99.80;;;;;;4956051;28;20258;-86
2021/01/12 06:27:13;;;;;;;23.52;12.10;;;1.10;99.80;;;;;;4947728;28;20341;-87
2021/01/12 06:29:42;;;;;;;25.15;12.35;;;1.10;99.80;;;;;;4947530;28;20231;-87
2021/01/12 06:32:10;;;;;;;21.70;11.40;;;1.00;99.80;;;;;;4940903;28;20577;-88
2021/01/12 06:34:40;;;;;;;18.70;11.30;;;1.00;99.80;;;;;;4962606;28;20793;-86
2021/01/12 06:37:10;;;;;;;19.73;11.20;;;1.00;99.80;;;;;;4927258;28;20243;-88
2021/01/12 06:39:42;;;;;;;20.65;11.82;;;1.00;99.80;;;;;;4934910;28;20242;-87
2021/01/12 06:42:11;;;;;;;17.85;11.85;;;1.00;99.80;;;;;;4947861;28;20238;-86
2021/01/12 06:44:39;;;;;;;20.20;11.38;;;1.00;99.80;;;;;;4937816;28;20645;-87
2021/01/12 06:47:11;;;;;;;20.70;12.25;;;1.00;99.80;;;;;;4939991;28;20251;-87
2021/01/12 06:49:39;;;;;;;18.20;10.93;;;1.10;99.80;;;;;;4962856;28;20234;-86
2021/01/12 06:52:07;;;;;;;19.42;11.13;;;1.10;99.80;;;;;;4969224;28;20227;-88
2021/01/12 06:54:39;;;;;;;20.38;11.25;;;1.00;99.80;;;;;;4962031;28;20228;-88
2021/01/12 06:57:07;;;;;;;23.60;12.23;;;1.00;99.80;;;;;;4946562;28;20235;-88
2021/01/12 06:59:36;;;;;;;20.48;11.68;;;1.00;99.80;;;;;;4954778;28;20243;-89
2021/01/12 07:02:19;;;;;;;23.83;13.55;;;1.00;99.80;;;;;;4956692;28;20773;-88
2021/01/12 07:05:09;;;;;;;22.60;10.55;;;1.00;99.80;;;;;;4951137;28;20227;-88
2021/01/12 07:07:39;;;;;;;37.15;12.00;;;1.00;99.80;;;;;;4939916;28;20245;-88
2021/01/12 07:10:08;;;;;;;19.63;11.45;;;1.00;99.80;;;;;;4947575;28;20254;-88
2021/01/12 07:12:36;;;;;;;19.88;11.40;;;1.10;99.80;;;;;;4931774;28;20686;-88
2021/01/12 07:15:08;;;;;;;18.30;11.15;;;1.10;99.80;;;;;;4938014;28;20231;-89
2021/01/12 07:17:41;;;;;;;17.27;11.07;;;1.10;99.80;;;;;;4954601;28;20318;-88
2021/01/12 07:20:18;;;;;;;17.30;9.82;;;1.10;99.80;;;;;;4973041;28;20670;-88
2021/01/12 07:22:56;;;;;;;15.85;8.93;;;1.10;99.80;;;;;;4969710;28;20228;-87
2021/01/12 07:25:26;;;;;;;15.85;8.98;;;1.10;99.80;;;;;;4967662;28;20231;-88
2021/01/12 07:28:05;;;;;;;18.80;9.38;;;1.20;99.80;;;;;;4942128;28;20629;-90
2021/01/12 07:30:36;;;;;;;20.88;10.13;;;1.10;99.80;;;;;;4928397;28;20227;-90
2021/01/12 07:33:05;;;;;;;18.17;9.98;;;1.10;99.80;;;;;;4941430;28;20246;-89
2021/01/12 07:35:35;;;;;;;15.38;9.35;;;1.20;99.80;;;;;;4961524;28;20253;-88
2021/01/12 07:38:02;;;;;;;15.15;8.55;;;1.20;99.80;;;;;;4952150;28;20236;-88
2021/01/12 07:40:32;;;;;;;15.85;8.48;;;1.20;99.80;;;;;;4942588;28;20231;-89
2021/01/12 07:43:01;;;;;;;15.77;9.10;;;1.20;99.80;;;;;;4931774;28;20231;-89
2021/01/12 07:45:32;;;;;;;17.02;8.48;;;1.20;99.80;;;;;;4969533;28;20378;-89
2021/01/12 07:48:03;;;;;;;17.10;9.40;;;1.30;99.80;;;;;;4966896;28;20289;-88
2021/01/12 07:50:36;;;;;;;12.45;8.07;;;1.30;99.80;;;;;;4974693;28;20263;-88
2021/01/12 07:53:05;;;;;;;13.70;7.85;;;1.30;99.80;;;;;;4961280;28;20311;-88
2021/01/12 07:55:33;;;;;;;13.43;7.85;;;1.30;99.80;;;;;;4968117;28;20863;-88
2021/01/12 07:58:05;;;;;;;14.73;8.65;;;1.30;99.80;;;;;;4957726;28;20232;-88
2021/01/12 08:00:33;;;;;;;10.82;6.45;;;1.30;99.80;;;;;;4928040;28;20236;-87
2021/01/12 08:03:01;;;;;;;15.63;7.90;;;1.30;99.80;;;;;;4955591;28;20231;-88
2021/01/12 08:05:29;;;;;;;13.38;7.90;;;1.30;99.80;;;;;;4966662;28;21068;-88
2021/01/12 08:08:27;;;;;;;13.13;7.20;;;1.30;99.80;;;;;;4954488;28;20232;-88
2021/01/12 08:11:01;;;;;;;14.63;8.00;;;1.30;99.80;;;;;;4950229;28;20235;-88
2021/01/12 08:13:28;;;;;;;13.65;8.48;;;1.40;99.80;;;;;;4932287;28;20502;-88
2021/01/12 08:15:58;;;;;;;11.82;6.85;;;1.30;99.80;;;;;;4961714;28;20270;-89
2021/01/12 08:18:25;;;;;;;11.88;7.10;;;1.40;99.80;;;;;;4960003;28;20233;-88
2021/01/12 08:20:56;;;;;;;12.07;8.20;;;1.40;99.80;;;;;;4938977;28;20230;-89
2021/01/12 08:23:27;;;;;;;12.50;7.25;;;1.40;99.80;;;;;;4939376;28;20236;-86
2021/01/12 08:25:54;;;;;;;11.30;7.22;;;1.50;99.80;;;;;;4958652;28;20293;-88
2021/01/12 08:28:25;;;;;;;15.10;7.47;;;1.50;99.80;;;;;;4965499;28;20770;-88
2021/01/12 08:30:52;;;;;;;9.95;6.28;;;1.50;99.80;;;;;;4959151;28;20226;-88
2021/01/12 08:33:25;;;;;;;12.65;6.97;;;1.50;99.80;;;;;;4972481;28;20218;-89
2021/01/12 08:35:55;;;;;;;11.23;6.53;;;1.60;99.80;;;;;;4953964;28;20236;-88
2021/01/12 08:38:27;;;;;;;11.32;6.60;;;1.60;99.80;;;;;;4961150;28;20768;-88
2021/01/12 08:40:55;;;;;;;12.32;6.85;;;1.60;99.80;;;;;;4961990;28;20322;-87
2021/01/12 08:43:29;;;;;;;8.18;6.03;;;1.60;99.80;;;;;;4957820;28;20227;-89
2021/01/12 08:45:59;;;;;;;9.57;6.20;;;1.60;99.80;;;;;;4935153;28;20225;-88
2021/01/12 08:52:29;;;;;;;6.82;4.55;;;1.70;99.80;;;;;;4919708;28;20283;-89
2021/01/12 08:54:57;;;;;;;9.00;4.68;;;1.70;99.80;;;;;;4943625;28;20744;-86
2021/01/12 09:01:27;;;;;;;8.95;5.72;;;1.80;99.80;;;;;;4913669;28;20314;-88
2021/01/12 09:04:02;;;;;;;7.60;4.97;;;1.80;99.80;;;;;;4962928;28;20586;-87
2021/01/12 09:06:29;;;;;;;9.20;5.55;;;1.80;99.80;;;;;;4951414;28;20363;-87
2021/01/12 09:09:07;;;;;;;7.22;5.05;;;1.80;99.80;;;;;;4954805;28;20308;-87
2021/01/12 09:11:46;;;;;;;9.07;5.25;;;1.80;99.80;;;;;;4931828;28;20227;-88
2021/01/12 09:14:14;;;;;;;7.10;5.00;;;1.80;99.80;;;;;;4953519;28;20239;-88
2021/01/12 09:16:42;;;;;;;8.35;4.10;;;1.90;99.80;;;;;;4935903;28;20223;-88
2021/01/12 09:19:14;;;;;;;9.38;4.75;;;1.90;99.80;;;;;;4953186;28;20231;-89
2021/01/12 09:21:42;;;;;;;5.65;4.05;;;2.00;99.80;;;;;;4942352;28;20714;-88
2021/01/12 09:24:15;;;;;;;4.03;3.63;;;2.00;99.80;;;;;;4937842;28;20231;-88
2021/01/12 09:26:44;;;;;;;4.93;4.20;;;2.00;99.80;;;;;;4933115;28;20924;-88
2021/01/12 09:29:15;;;;;;;4.75;4.35;;;2.00;99.80;;;;;;4931520;28;20238;-89
2021/01/12 09:31:46;;;;;;;6.88;4.88;;;2.00;99.80;;;;;;4936641;28;20254;-89
2021/01/12 09:34:20;;;;;;;10.48;3.97;;;2.10;99.80;;;;;;4955029;28;20996;-88
2021/01/12 09:36:48;;;;;;;3.45;2.90;;;2.20;99.80;;;;;;4954449;28;20642;-88
2021/01/12 09:39:15;;;;;;;4.55;3.70;;;2.20;99.80;;;;;;4959080;28;20235;-87
2021/01/12 09:41:55;;;;;;;5.90;3.88;;;2.30;99.80;;;;;;4949389;28;20223;-89
2021/01/12 09:44:22;;;;;;;3.90;3.60;;;2.40;99.80;;;;;;4938831;28;20702;-88
2021/01/12 09:46:51;;;;;;;4.18;2.85;;;2.40;99.80;;;;;;4938232;28;20224;-89
2021/01/12 09:49:19;;;;;;;3.17;2.72;;;2.50;99.80;;;;;;4964356;28;20998;-87
2021/01/12 09:51:46;;;;;;;3.17;2.70;;;2.50;99.80;;;;;;4948720;28;20228;-89
2021/01/12 09:54:16;;;;;;;2.90;2.60;;;2.50;99.80;;;;;;4948052;28;20345;-88
2021/01/12 09:56:43;;;;;;;2.05;1.95;;;2.50;99.80;;;;;;4956212;28;20227;-88
2021/01/12 09:59:14;;;;;;;2.90;2.20;;;2.50;99.80;;;;;;4941879;28;20235;-88
2021/01/12 10:01:53;;;;;;;2.83;2.58;;;2.60;99.80;;;;;;4946424;28;20282;-89
2021/01/12 10:04:21;;;;;;;2.47;2.20;;;2.70;99.80;;;;;;4984481;28;20282;-89
2021/01/12 10:06:50;;;;;;;3.97;2.67;;;2.70;99.80;;;;;;4974222;28;20253;-88
2021/01/12 10:09:20;;;;;;;2.90;2.53;;;2.70;99.80;;;;;;4972314;28;20271;-88
2021/01/12 10:11:47;;;;;;;3.70;2.70;;;2.70;99.80;;;;;;4963166;28;20235;-87
2021/01/12 10:14:19;;;;;;;3.13;2.83;;;2.70;99.80;;;;;;4956641;28;20242;-89
2021/01/12 10:16:46;;;;;;;4.50;2.20;;;2.80;99.80;;;;;;4943899;28;20307;-89
2021/01/12 10:19:14;;;;;;;5.78;2.30;;;2.70;99.80;;;;;;4957808;28;20637;-88
2021/01/12 10:21:42;;;;;;;2.95;2.75;;;2.70;99.80;;;;;;4952486;28;20230;-87
2021/01/12 10:24:10;;;;;;;8.55;2.88;;;2.70;99.80;;;;;;4947438;28;20263;-87
2021/01/12 10:26:38;;;;;;;2.75;2.45;;;2.70;99.80;;;;;;4958401;28;20787;-88
2021/01/12 10:29:05;;;;;;;3.70;2.70;;;2.70;99.80;;;;;;4941020;28;20314;-89
2021/01/12 10:31:33;;;;;;;2.95;2.17;;;2.80;99.80;;;;;;4947164;28;20323;-88
2021/01/12 10:34:01;;;;;;;3.08;2.35;;;2.80;99.80;;;;;;4952572;28;20232;-86
2021/01/12 10:36:28;;;;;;;3.50;2.50;;;2.80;99.80;;;;;;4951080;28;20323;-86
2021/01/12 10:38:56;;;;;;;2.15;1.95;;;2.80;99.80;;;;;;4950432;28;20258;-86
2021/01/12 10:41:23;;;;;;;2.45;2.25;;;2.80;99.80;;;;;;4948867;28;20234;-86
2021/01/12 10:43:50;;;;;;;3.33;2.83;;;2.90;99.80;;;;;;4939411;28;20232;-86
2021/01/12 10:46:17;;;;;;;2.30;2.10;;;2.90;99.80;;;;;;4949271;28;20231;-85
2021/01/12 10:48:49;;;;;;;1.75;1.65;;;2.90;99.80;;;;;;4962388;28;20243;-86
2021/01/12 10:51:18;;;;;;;3.30;2.40;;;3.00;99.80;;;;;;4969226;28;20261;-86
2021/01/12 10:53:48;;;;;;;1.67;1.58;;;3.00;99.80;;;;;;4956585;28;20239;-86
2021/01/12 10:56:15;;;;;;;6.65;2.40;;;3.00;99.80;;;;;;4951787;28;20301;-85
2021/01/12 10:58:46;;;;;;;2.33;2.03;;;3.00;99.80;;;;;;4959751;28;20241;-85
2021/01/12 11:01:14;;;;;;;1.83;1.63;;;3.00;99.80;;;;;;4942464;28;20306;-86
2021/01/12 11:03:41;;;;;;;1.88;1.63;;;3.00;99.80;;;;;;4961873;28;20306;-85
2021/01/12 11:06:10;;;;;;;1.80;1.70;;;3.10;99.80;;;;;;4953716;28;20232;-85
2021/01/12 11:08:37;;;;;;;1.80;1.70;;;3.10;99.80;;;;;;4957148;28;20671;-86
2021/01/12 11:11:04;;;;;;;1.70;1.60;;;3.10;99.80;;;;;;4978567;28;20682;-85
2021/01/12 11:13:36;;;;;;;1.90;1.80;;;3.10;99.80;;;;;;4953918;28;20220;-85
2021/01/12 11:16:07;;;;;;;2.22;2.05;;;3.10;99.80;;;;;;4963044;28;20235;-86
2021/01/12 11:18:37;;;;;;;2.10;2.00;;;3.10;99.80;;;;;;4970771;28;20254;-86
2021/01/12 11:21:04;;;;;;;2.58;1.45;;;3.10;99.80;;;;;;4963717;28;20231;-86
2021/01/12 11:23:34;;;;;;;1.65;1.40;;;3.20;99.80;;;;;;4971299;28;20705;-85
2021/01/12 11:26:11;;;;;;;1.70;1.60;;;3.30;99.80;;;;;;4970827;28;20669;-86
2021/01/12 11:28:41;;;;;;;2.03;1.83;;;3.30;99.80;;;;;;4938291;28;20699;-86
2021/01/12 11:31:28;;;;;;;3.40;1.60;;;3.20;99.80;;;;;;4957014;28;20328;-86
2021/01/12 11:34:31;;;;;;;1.38;1.27;;;3.20;99.80;;;;;;4964400;28;20286;-86
2021/01/12 11:37:05;;;;;;;1.40;1.30;;;3.20;99.80;;;;;;4940740;28;20223;-87
2021/01/12 11:39:38;;;;;;;2.35;1.52;;;3.30;99.80;;;;;;4956842;28;20246;-86
2021/01/12 11:42:09;;;;;;;4.57;2.20;;;3.30;99.80;;;;;;4952509;28;20226;-86
2021/01/12 11:44:39;;;;;;;1.63;1.52;;;3.30;99.80;;;;;;4940838;28;20448;-87
2021/01/12 11:47:11;;;;;;;1.80;1.65;;;3.40;99.80;;;;;;4959940;28;20234;-88
2021/01/12 11:49:38;;;;;;;1.63;1.40;;;3.40;99.80;;;;;;4961944;28;20231;-88
2021/01/12 11:52:10;;;;;;;1.58;1.48;;;3.40;99.80;;;;;;4961979;28;20247;-87
2021/01/12 11:54:38;;;;;;;4.30;1.50;;;3.40;99.80;;;;;;4956979;28;20695;-87
2021/01/12 11:57:09;;;;;;;1.70;1.60;;;3.40;99.80;;;;;;4943851;28;20230;-87
2021/01/12 11:59:37;;;;;;;1.45;1.35;;;3.40;99.80;;;;;;4940085;28;20731;-86
2021/01/12 12:02:14;;;;;;;2.65;1.65;;;3.40;99.80;;;;;;4961657;28;20253;-88
2021/01/12 12:04:41;;;;;;;2.75;1.25;;;3.40;99.80;;;;;;4969007;28;20234;-87
2021/01/12 12:07:08;;;;;;;1.40;1.30;;;3.50;99.80;;;;;;4962705;28;21003;-87
2021/01/12 12:09:36;;;;;;;1.45;1.35;;;3.50;99.80;;;;;;4964407;28;20714;-87
2021/01/12 12:12:04;;;;;;;1.85;1.30;;;3.60;99.80;;;;;;4951794;28;20871;-87
2021/01/12 12:14:38;;;;;;;6.55;1.58;;;3.60;99.80;;;;;;4936601;28;20310;-87
2021/01/12 12:17:05;;;;;;;2.38;1.75;;;3.60;99.80;;;;;;4950024;28;20226;-88
2021/01/12 12:19:35;;;;;;;1.65;1.52;;;3.70;99.80;;;;;;4964660;28;20251;-87
2021/01/12 12:22:05;;;;;;;2.08;1.48;;;3.80;99.80;;;;;;4948424;28;20690;-87
2021/01/12 12:24:32;;;;;;;1.55;1.30;;;3.90;99.80;;;;;;4938763;28;20226;-87
2021/01/12 12:27:02;;;;;;;2.03;1.90;;;4.00;99.80;;;;;;4946917;28;20281;-87
2021/01/12 12:29:30;;;;;;;3.80;1.52;;;3.90;99.80;;;;;;4956313;28;20239;-87
2021/01/12 12:32:06;;;;;;;1.58;1.38;;;4.00;99.80;;;;;;4914716;28;20234;-87
2021/01/12 12:34:34;;;;;;;1.45;1.35;;;3.90;99.80;;;;;;4974471;28;20240;-87
2021/01/12 12:37:01;;;;;;;2.30;1.98;;;3.90;99.80;;;;;;4967576;28;20720;-87
2021/01/12 12:39:28;;;;;;;1.65;1.52;;;3.80;99.80;;;;;;4962684;28;20237;-86
2021/01/12 12:41:57;;;;;;;2.35;1.50;;;3.80;99.80;;;;;;4950741;28;20281;-87
2021/01/12 12:44:25;;;;;;;3.83;1.92;;;3.80;99.80;;;;;;4936775;28;20674;-87
2021/01/12 12:46:53;;;;;;;1.65;1.35;;;3.80;99.80;;;;;;4945778;28;20239;-86
2021/01/12 12:49:20;;;;;;;1.45;1.35;;;3.80;99.80;;;;;;4960216;28;20238;-88
2021/01/12 12:51:48;;;;;;;1.83;1.73;;;4.00;99.80;;;;;;4941360;28;20258;-87
2021/01/12 12:54:15;;;;;;;1.83;1.50;;;4.10;99.80;;;;;;4947207;28;20235;-87
2021/01/12 12:56:42;;;;;;;1.50;1.40;;;4.20;99.80;;;;;;4950881;28;20235;-87
2021/01/12 12:59:10;;;;;;;1.98;1.38;;;4.30;99.80;;;;;;4933337;28;20330;-88
2021/01/12 13:01:47;;;;;;;2.22;1.60;;;4.30;99.80;;;;;;4944651;28;20288;-88
2021/01/12 13:04:17;;;;;;;2.65;2.13;;;4.30;99.80;;;;;;4974579;28;20241;-87
2021/01/12 13:06:49;;;;;;;3.20;1.60;;;4.30;99.80;;;;;;4968563;28;20234;-87